createdAt,value
2022-11-29T00:01:17.699Z,19.60
2022-11-29T00:03:45.259Z,22.80
2022-11-29T00:06:18.500Z,23.73
2022-11-29T00:08:46.367Z,24.17
2022-11-29T00:11:41.244Z,25.07
2022-11-29T00:14:11.682Z,22.70
2022-11-29T00:16:41.096Z,24.33
2022-11-29T00:19:10.367Z,23.37
2022-11-29T00:21:37.553Z,23.27
2022-11-29T00:24:04.976Z,24.23
2022-11-29T00:26:32.154Z,27.27
2022-11-29T00:28:59.260Z,23.33
2022-11-29T00:31:32.967Z,24.10
2022-11-29T00:34:02.561Z,23.20
2022-11-29T00:36:30.057Z,24.07
2022-11-29T00:38:57.502Z,24.70
2022-11-29T00:41:25.175Z,27.20
2022-11-29T00:43:52.224Z,23.10
2022-11-29T00:46:19.548Z,24.33
2022-11-29T00:48:46.631Z,25.67
2022-11-29T00:51:13.881Z,24.20
2022-11-29T00:53:40.972Z,24.47
2022-11-29T00:56:08.362Z,25.27
2022-11-29T00:58:36.326Z,25.80
2022-11-29T01:01:04.266Z,25.47
2022-11-29T01:03:31.893Z,23.17
2022-11-29T01:06:08.142Z,24.20
2022-11-29T01:08:35.444Z,25.77
2022-11-29T01:11:08.717Z,26.37
2022-11-29T01:13:36.165Z,26.10
2022-11-29T01:16:04.892Z,29.00
2022-11-29T01:18:32.707Z,27.50
2022-11-29T01:21:07.634Z,25.33
2022-11-29T01:23:35.929Z,26.73
2022-11-29T01:26:12.993Z,27.50
2022-11-29T01:28:40.933Z,24.70
2022-11-29T01:31:09.008Z,27.77
2022-11-29T01:33:36.878Z,26.57
2022-11-29T01:36:05.703Z,26.27
2022-11-29T01:38:33.711Z,29.77
2022-11-29T01:41:11.182Z,30.40
2022-11-29T01:44:04.922Z,29.20
2022-11-29T01:46:38.447Z,27.57
2022-11-29T01:49:19.840Z,28.83
2022-11-29T01:51:54.173Z,27.60
2022-11-29T01:54:22.236Z,27.77
2022-11-29T01:56:51.652Z,29.20
2022-11-29T01:59:24.994Z,28.53
2022-11-29T02:01:52.961Z,29.00
2022-11-29T02:04:20.407Z,29.33
2022-11-29T02:06:47.706Z,29.73
2022-11-29T02:09:23.552Z,28.93
2022-11-29T02:12:17.324Z,32.10
2022-11-29T02:15:02.420Z,28.63
2022-11-29T02:17:35.537Z,26.70
2022-11-29T02:20:17.776Z,30.93
2022-11-29T02:22:54.051Z,28.63
2022-11-29T02:26:03.206Z,26.67
2022-11-29T02:29:00.078Z,27.93
2022-11-29T02:32:04.359Z,28.70
2022-11-29T02:34:46.363Z,30.87
2022-11-29T02:37:22.730Z,26.67
2022-11-29T02:40:10.856Z,29.17
2022-11-29T02:43:08.968Z,30.50
2022-11-29T02:46:12.794Z,29.00
2022-11-29T02:49:07.036Z,30.03
2022-11-29T02:52:13.011Z,30.17
2022-11-29T02:55:04.001Z,28.87
2022-11-29T02:57:42.429Z,27.30
2022-11-29T03:00:20.239Z,29.53
2022-11-29T03:03:22.670Z,29.40
2022-11-29T03:06:07.629Z,31.00
2022-11-29T03:08:41.101Z,30.17
2022-11-29T03:11:38.187Z,29.70
2022-11-29T03:14:17.550Z,28.30
2022-11-29T03:17:17.230Z,30.30
2022-11-29T03:20:18.780Z,29.37
2022-11-29T03:23:04.423Z,31.37
2022-11-29T03:25:43.914Z,28.37
2022-11-29T03:28:19.971Z,30.43
2022-11-29T03:30:59.044Z,25.87
2022-11-29T03:33:51.966Z,29.57
2022-11-29T03:36:37.106Z,30.83
2022-11-29T03:39:09.709Z,30.27
2022-11-29T03:42:08.223Z,30.93
2022-11-29T03:44:43.061Z,28.70
2022-11-29T03:47:16.727Z,29.17
2022-11-29T03:50:06.495Z,28.97
2022-11-29T03:52:55.105Z,29.83
2022-11-29T03:55:22.236Z,28.67
2022-11-29T03:58:07.994Z,32.30
2022-11-29T04:01:02.633Z,28.00
2022-11-29T04:03:51.402Z,30.37
2022-11-29T04:06:24.724Z,28.80
2022-11-29T04:09:21.044Z,29.20
2022-11-29T04:12:19.480Z,30.17
2022-11-29T04:15:23.857Z,28.80
2022-11-29T04:18:25.138Z,30.47
2022-11-29T04:21:01.846Z,30.37
2022-11-29T04:24:06.386Z,30.10
2022-11-29T04:27:11.222Z,30.03
2022-11-29T04:30:08.528Z,28.90
2022-11-29T04:33:29.644Z,30.20
2022-11-29T04:35:59.735Z,28.20
2022-11-29T04:38:35.661Z,29.17
2022-11-29T04:41:14.980Z,30.60
2022-11-29T04:43:45.035Z,27.83
2022-11-29T04:46:43.724Z,29.77
2022-11-29T04:49:38.471Z,28.60
2022-11-29T04:52:17.552Z,30.47
2022-11-29T04:55:00.917Z,29.60
2022-11-29T04:57:39.567Z,29.00
2022-11-29T05:00:14.606Z,31.47
2022-11-29T05:02:50.495Z,28.50
2022-11-29T05:05:36.091Z,30.40
2022-11-29T05:08:25.148Z,27.30
2022-11-29T05:11:13.591Z,30.83
2022-11-29T05:13:49.588Z,29.83
2022-11-29T05:16:38.301Z,29.17
2022-11-29T05:19:34.077Z,30.77
2022-11-29T05:22:35.144Z,29.20
2022-11-29T05:25:35.670Z,31.60
2022-11-29T05:28:49.807Z,31.80
2022-11-29T05:31:52.514Z,32.97
2022-11-29T05:34:30.267Z,34.13
2022-11-29T05:37:42.568Z,30.83
2022-11-29T05:40:21.901Z,31.27
2022-11-29T05:43:26.463Z,30.53
2022-11-29T05:46:01.362Z,33.00
2022-11-29T05:48:32.118Z,32.60
2022-11-29T05:51:33.927Z,32.07
2022-11-29T05:54:12.927Z,31.37
2022-11-29T05:56:55.283Z,53.77
2022-11-29T05:59:26.459Z,61.57
2022-11-29T06:01:53.778Z,67.37
2022-11-29T06:04:29.423Z,62.20
2022-11-29T06:07:34.200Z,58.90
2022-11-29T06:10:04.410Z,53.00
2022-11-29T06:12:36.167Z,54.67
2022-11-29T06:15:30.271Z,50.77
2022-11-29T06:18:36.869Z,49.03
2022-11-29T06:21:30.891Z,50.60
2022-11-29T06:24:20.448Z,43.80
2022-11-29T06:27:08.917Z,44.33
2022-11-29T06:29:42.491Z,42.50
2022-11-29T06:32:25.548Z,42.30
2022-11-29T06:35:02.510Z,41.87
2022-11-29T06:37:43.732Z,39.20
2022-11-29T06:40:14.405Z,42.17
2022-11-29T06:42:41.900Z,42.13
2022-11-29T06:45:15.743Z,37.87
2022-11-29T06:47:45.129Z,38.27
2022-11-29T06:50:34.586Z,37.73
2022-11-29T06:53:33.393Z,36.97
2022-11-29T06:56:15.458Z,37.23
2022-11-29T06:59:03.482Z,39.30
2022-11-29T07:01:41.811Z,36.20
2022-11-29T07:04:27.389Z,36.17
2022-11-29T07:06:54.795Z,38.87
2022-11-29T07:09:28.736Z,37.30
2022-11-29T07:11:56.334Z,38.00
2022-11-29T07:14:23.759Z,37.43
2022-11-29T07:17:27.984Z,35.13
2022-11-29T07:20:33.120Z,36.03
2022-11-29T07:23:30.228Z,37.40
2022-11-29T07:26:23.605Z,35.63
2022-11-29T07:29:08.738Z,36.30
2022-11-29T07:32:11.061Z,39.17
2022-11-29T07:35:10.405Z,35.93
2022-11-29T07:37:58.000Z,38.53
2022-11-29T07:40:50.409Z,37.00
2022-11-29T07:43:35.364Z,37.53
2022-11-29T07:46:02.477Z,36.97
2022-11-29T07:48:29.697Z,36.50
2022-11-29T07:50:57.171Z,39.07
2022-11-29T07:53:24.555Z,37.33
2022-11-29T07:55:52.198Z,36.10
2022-11-29T07:58:19.659Z,36.17
2022-11-29T08:00:46.904Z,35.53
2022-11-29T08:03:14.373Z,35.60
2022-11-29T08:05:46.365Z,36.13
2022-11-29T08:08:13.664Z,38.00
2022-11-29T08:10:40.727Z,35.90
2022-11-29T08:13:07.826Z,33.77
2022-11-29T08:15:35.223Z,35.20
2022-11-29T08:18:03.281Z,36.40
2022-11-29T08:20:30.462Z,36.33
2022-11-29T08:22:59.842Z,36.33
2022-11-29T08:25:27.755Z,36.50
2022-11-29T08:27:55.550Z,36.43
2022-11-29T08:30:23.399Z,36.73
2022-11-29T08:32:51.954Z,40.97
2022-11-29T08:35:21.384Z,34.90
2022-11-29T08:37:49.221Z,35.20
2022-11-29T08:40:17.209Z,34.30
2022-11-29T08:42:44.475Z,39.33
2022-11-29T08:45:12.067Z,36.03
2022-11-29T08:47:42.236Z,33.87
2022-11-29T08:50:15.633Z,35.10
2022-11-29T08:53:06.670Z,36.63
2022-11-29T08:55:37.805Z,35.60
2022-11-29T08:58:08.054Z,33.57
2022-11-29T09:00:35.682Z,37.10
2022-11-29T09:03:22.743Z,35.27
2022-11-29T09:05:50.345Z,36.70
2022-11-29T09:08:17.709Z,36.47
2022-11-29T09:10:44.928Z,35.10
2022-11-29T09:13:12.605Z,34.40
2022-11-29T09:15:42.010Z,34.63
2022-11-29T09:18:09.290Z,34.70
2022-11-29T09:20:36.545Z,35.40
2022-11-29T09:23:03.682Z,31.70
2022-11-29T09:25:30.836Z,30.73
2022-11-29T09:28:01.413Z,37.10
2022-11-29T09:30:32.104Z,33.77
2022-11-29T09:33:05.298Z,34.60
2022-11-29T09:35:33.656Z,31.60
2022-11-29T09:38:01.032Z,31.47
2022-11-29T09:40:37.551Z,33.43
2022-11-29T09:43:20.326Z,33.63
2022-11-29T09:45:52.270Z,33.07
2022-11-29T09:48:33.255Z,32.40
2022-11-29T09:51:27.433Z,31.67
2022-11-29T09:54:00.573Z,34.40
2022-11-29T09:56:41.405Z,34.47
2022-11-29T09:59:27.524Z,32.07
2022-11-29T10:02:06.192Z,32.47
2022-11-29T10:04:40.892Z,32.47
2022-11-29T10:07:23.988Z,32.50
2022-11-29T10:10:03.110Z,34.33
2022-11-29T10:12:44.522Z,32.90
2022-11-29T10:15:25.426Z,33.80
2022-11-29T10:18:04.689Z,33.60
2022-11-29T10:20:40.640Z,33.33
2022-11-29T10:23:36.804Z,32.20
2022-11-29T10:26:08.846Z,31.90
2022-11-29T10:28:37.571Z,36.10
2022-11-29T10:31:16.799Z,35.03
2022-11-29T10:33:45.351Z,35.63
2022-11-29T10:36:46.470Z,33.13
2022-11-29T10:39:42.253Z,34.63
2022-11-29T10:42:36.161Z,34.63
2022-11-29T10:45:05.502Z,34.73
2022-11-29T10:47:33.030Z,35.50
2022-11-29T10:50:00.233Z,34.77
2022-11-29T10:52:27.394Z,37.20
2022-11-29T10:54:58.672Z,35.20
2022-11-29T10:57:25.903Z,37.47
2022-11-29T11:00:11.918Z,39.60
2022-11-29T11:02:39.319Z,37.77
2022-11-29T11:05:18.941Z,34.97
2022-11-29T11:07:55.665Z,38.07
2022-11-29T11:10:27.800Z,39.03
2022-11-29T11:13:03.567Z,35.00
2022-11-29T11:15:32.667Z,40.87
2022-11-29T11:18:04.026Z,37.20
2022-11-29T11:20:33.458Z,36.03
2022-11-29T11:23:22.788Z,38.97
2022-11-29T11:26:02.362Z,36.70
2022-11-29T11:28:42.535Z,36.87
2022-11-29T11:31:11.906Z,40.50
2022-11-29T11:33:41.487Z,38.17
2022-11-29T11:36:14.780Z,39.57
2022-11-29T11:39:09.784Z,40.20
2022-11-29T11:41:59.710Z,39.07
2022-11-29T11:44:49.790Z,41.30
2022-11-29T11:47:31.714Z,38.80
2022-11-29T11:50:04.500Z,36.10
2022-11-29T11:52:40.137Z,41.87
2022-11-29T11:55:30.340Z,38.93
2022-11-29T11:58:16.243Z,38.50
2022-11-29T12:01:06.573Z,37.70
2022-11-29T12:04:26.462Z,40.47
2022-11-29T12:07:03.099Z,39.27
2022-11-29T12:09:51.607Z,41.57
2022-11-29T12:12:37.269Z,40.10
2022-11-29T12:15:20.891Z,38.97
2022-11-29T12:17:50.989Z,42.17
2022-11-29T12:20:41.148Z,40.20
2022-11-29T12:23:17.101Z,42.00
2022-11-29T12:26:48.836Z,40.30
2022-11-29T12:29:18.053Z,42.10
2022-11-29T12:32:03.663Z,43.57
2022-11-29T12:34:58.342Z,42.87
2022-11-29T12:37:49.562Z,42.60
2022-11-29T12:40:28.130Z,40.10
2022-11-29T12:43:11.749Z,40.10
2022-11-29T12:46:03.610Z,46.83
2022-11-29T12:48:50.034Z,39.97
2022-11-29T12:51:29.050Z,41.57
2022-11-29T12:54:26.145Z,41.70
2022-11-29T12:57:19.254Z,40.03
2022-11-29T13:00:07.618Z,42.00
2022-11-29T13:02:43.623Z,41.70
2022-11-29T13:05:19.807Z,40.20
2022-11-29T13:07:58.863Z,41.33
2022-11-29T13:10:38.436Z,41.53
2022-11-29T13:13:23.917Z,42.30
2022-11-29T13:16:03.114Z,39.23
2022-11-29T13:18:32.969Z,40.70
2022-11-29T13:21:42.039Z,43.80
2022-11-29T13:24:23.552Z,43.77
2022-11-29T13:26:51.876Z,43.00
2022-11-29T13:29:19.959Z,44.60
2022-11-29T13:31:47.863Z,42.37
2022-11-29T13:34:22.487Z,44.03
2022-11-29T13:37:24.099Z,46.03
2022-11-29T13:40:15.581Z,42.27
2022-11-29T13:43:08.367Z,39.60
2022-11-29T13:45:52.645Z,43.23
2022-11-29T13:48:28.937Z,41.37
2022-11-29T13:50:57.724Z,41.40
2022-11-29T13:53:30.788Z,43.40
2022-11-29T13:56:01.267Z,46.20
2022-11-29T13:58:28.439Z,44.53
2022-11-29T14:01:00.666Z,45.17
2022-11-29T14:03:31.410Z,45.50
2022-11-29T14:06:14.984Z,45.83
2022-11-29T14:09:17.991Z,42.57
2022-11-29T14:11:42.728Z,48.13
2022-11-29T14:14:22.930Z,47.27
2022-11-29T14:17:01.983Z,43.60
2022-11-29T14:19:33.425Z,43.60
2022-11-29T14:22:19.213Z,44.60
2022-11-29T14:25:00.997Z,46.67
2022-11-29T14:27:28.112Z,41.43
2022-11-29T14:29:55.415Z,44.83
2022-11-29T14:32:45.953Z,45.00
2022-11-29T14:35:20.371Z,44.37
2022-11-29T14:38:13.049Z,47.27
2022-11-29T14:40:52.886Z,47.77
2022-11-29T14:43:46.463Z,44.40
2022-11-29T14:46:16.668Z,45.63
2022-11-29T14:48:54.671Z,47.10
2022-11-29T14:51:26.778Z,46.17
2022-11-29T14:54:13.252Z,43.50
2022-11-29T14:56:45.628Z,46.47
2022-11-29T14:59:49.964Z,49.40
2022-11-29T15:02:20.259Z,48.67
2022-11-29T15:04:51.099Z,47.57
2022-11-29T15:07:25.169Z,47.37
2022-11-29T15:09:55.222Z,49.53
2022-11-29T15:12:27.504Z,47.97
2022-11-29T15:15:12.852Z,44.33
2022-11-29T15:18:12.138Z,46.27
2022-11-29T15:21:08.514Z,46.10
2022-11-29T15:23:42.837Z,48.50
2022-11-29T15:26:21.079Z,46.23
2022-11-29T15:28:48.168Z,46.03
2022-11-29T15:31:19.228Z,45.17
2022-11-29T15:33:57.320Z,46.37
2022-11-29T15:36:25.962Z,46.90
2022-11-29T15:38:55.859Z,45.10
2022-11-29T15:41:31.595Z,46.50
2022-11-29T15:44:01.848Z,47.37
2022-11-29T15:46:31.738Z,49.20
2022-11-29T15:49:24.454Z,48.87
2022-11-29T15:52:06.207Z,46.97
2022-11-29T15:54:39.092Z,47.40
2022-11-29T15:57:10.720Z,48.73
2022-11-29T15:59:46.311Z,47.20
2022-11-29T16:02:27.938Z,46.87
2022-11-29T16:05:03.087Z,48.03
2022-11-29T16:07:34.349Z,47.30
2022-11-29T16:10:14.580Z,46.47
2022-11-29T16:12:59.538Z,46.97
2022-11-29T16:15:38.911Z,48.40
2022-11-29T16:18:23.783Z,51.13
2022-11-29T16:21:01.990Z,47.40
2022-11-29T16:23:37.491Z,49.97
2022-11-29T16:26:22.582Z,48.83
2022-11-29T16:28:52.154Z,48.43
2022-11-29T16:31:34.208Z,46.83
2022-11-29T16:34:26.254Z,45.40
2022-11-29T16:37:12.113Z,49.00
2022-11-29T16:39:39.583Z,48.47
2022-11-29T16:42:30.145Z,48.73
2022-11-29T16:45:28.315Z,48.93
2022-11-29T16:47:58.996Z,47.50
2022-11-29T16:50:31.111Z,44.57
2022-11-29T16:53:37.527Z,49.60
2022-11-29T16:56:16.192Z,44.57
2022-11-29T16:59:17.169Z,46.00
2022-11-29T17:01:33.419Z,46.53
2022-11-29T17:04:00.957Z,47.50
2022-11-29T17:06:29.363Z,50.10
2022-11-29T17:08:58.532Z,48.40
2022-11-29T17:11:26.309Z,45.87
2022-11-29T17:13:53.788Z,45.13
2022-11-29T17:16:24.566Z,46.93
2022-11-29T17:18:54.954Z,43.97
2022-11-29T17:21:24.554Z,42.20
2022-11-29T17:23:52.649Z,45.27
2022-11-29T17:26:20.950Z,40.63
2022-11-29T17:28:49.772Z,43.97
2022-11-29T17:31:22.395Z,41.40
2022-11-29T17:33:50.073Z,66.53
2022-11-29T17:36:20.074Z,54.60
2022-11-29T17:38:47.949Z,50.40
2022-11-29T17:41:23.646Z,52.77
2022-11-29T17:43:52.464Z,49.80
2022-11-29T17:46:26.103Z,47.93
2022-11-29T17:48:54.026Z,48.83
2022-11-29T17:51:50.639Z,51.70
2022-11-29T17:54:11.344Z,46.37
2022-11-29T17:56:38.875Z,47.60
2022-11-29T17:59:06.301Z,49.40
2022-11-29T18:01:36.096Z,46.37
2022-11-29T18:04:05.580Z,48.07
2022-11-29T18:06:38.564Z,47.00
2022-11-29T18:09:08.596Z,43.53
2022-11-29T18:11:47.081Z,48.90
2022-11-29T18:14:20.935Z,45.60
2022-11-29T18:16:48.326Z,46.57
2022-11-29T18:19:21.705Z,46.97
2022-11-29T18:21:49.820Z,46.90
2022-11-29T18:24:17.413Z,43.37
2022-11-29T18:26:45.072Z,44.87
2022-11-29T18:29:12.469Z,44.63
2022-11-29T18:31:42.905Z,45.97
2022-11-29T18:34:11.829Z,44.93
2022-11-29T18:36:47.968Z,45.17
2022-11-29T18:39:19.729Z,45.17
2022-11-29T18:41:49.047Z,47.67
2022-11-29T18:44:18.305Z,42.83
2022-11-29T18:46:46.173Z,45.60
2022-11-29T18:49:16.214Z,45.10
2022-11-29T18:51:45.623Z,46.17
2022-11-29T18:54:14.789Z,45.10
2022-11-29T18:56:43.355Z,44.57
2022-11-29T18:59:17.199Z,42.73
2022-11-29T19:01:48.839Z,44.57
2022-11-29T19:04:18.336Z,44.40
2022-11-29T19:06:45.954Z,47.20
2022-11-29T19:09:18.633Z,45.07
2022-11-29T19:11:45.776Z,44.50
2022-11-29T19:14:13.424Z,47.10
2022-11-29T19:16:46.373Z,46.23
2022-11-29T19:19:18.788Z,46.90
2022-11-29T19:21:46.220Z,44.87
2022-11-29T19:24:16.930Z,44.30
2022-11-29T19:26:46.330Z,42.60
2022-11-29T19:29:14.516Z,46.83
2022-11-29T19:31:42.632Z,40.83
2022-11-29T19:34:10.041Z,38.43
2022-11-29T19:36:42.749Z,40.80
2022-11-29T19:39:12.393Z,39.47
2022-11-29T19:41:39.623Z,41.50
2022-11-29T19:44:07.982Z,40.87
2022-11-29T19:46:44.102Z,43.30
2022-11-29T19:49:12.167Z,40.53
2022-11-29T19:51:39.370Z,39.30
2022-11-29T19:54:08.238Z,41.13
2022-11-29T19:56:35.708Z,38.47
2022-11-29T19:59:03.020Z,41.40
2022-11-29T20:01:39.742Z,42.83
2022-11-29T20:04:09.083Z,40.73
2022-11-29T20:06:36.386Z,39.50
2022-11-29T20:09:04.011Z,39.53
2022-11-29T20:11:31.274Z,40.90
2022-11-29T20:14:00.556Z,39.97
2022-11-29T20:16:29.695Z,38.40
2022-11-29T20:18:59.280Z,38.70
2022-11-29T20:21:31.340Z,37.27
2022-11-29T20:24:01.153Z,39.87
2022-11-29T20:26:29.746Z,40.20
2022-11-29T20:28:56.949Z,38.40
2022-11-29T20:31:24.208Z,38.80
2022-11-29T20:33:53.473Z,37.13
2022-11-29T20:36:46.745Z,36.60
2022-11-29T20:39:29.085Z,37.20
2022-11-29T20:42:13.246Z,38.00
2022-11-29T20:44:58.500Z,36.50
2022-11-29T20:47:29.832Z,35.63
2022-11-29T20:49:58.003Z,36.80
2022-11-29T20:52:52.168Z,40.17
2022-11-29T20:55:19.530Z,39.50
2022-11-29T20:57:46.781Z,38.57
2022-11-29T21:00:16.208Z,36.37
2022-11-29T21:02:43.375Z,39.40
2022-11-29T21:05:10.886Z,34.10
2022-11-29T21:07:38.025Z,35.60
2022-11-29T21:10:05.992Z,35.30
2022-11-29T21:12:33.458Z,35.90
2022-11-29T21:15:01.440Z,36.13
2022-11-29T21:17:33.376Z,34.27
2022-11-29T21:20:01.777Z,34.83
2022-11-29T21:22:42.374Z,35.37
2022-11-29T21:25:45.253Z,34.00
2022-11-29T21:28:14.930Z,36.50
2022-11-29T21:30:43.618Z,33.90
2022-11-29T21:33:12.069Z,36.77
2022-11-29T21:35:40.046Z,34.10
2022-11-29T21:38:13.000Z,33.33
2022-11-29T21:40:40.213Z,36.60
2022-11-29T21:43:07.325Z,32.00
2022-11-29T21:45:34.441Z,33.60
2022-11-29T21:48:01.733Z,33.43
2022-11-29T21:50:28.822Z,33.43
2022-11-29T21:52:55.977Z,35.90
2022-11-29T21:55:23.143Z,35.10
2022-11-29T21:57:50.277Z,31.20
2022-11-29T22:00:17.882Z,35.43
2022-11-29T22:02:45.126Z,34.70
2022-11-29T22:05:12.350Z,35.30
2022-11-29T22:07:39.475Z,35.47
2022-11-29T22:10:13.323Z,33.73
2022-11-29T22:12:49.296Z,33.43
2022-11-29T22:15:24.107Z,35.47
2022-11-29T22:17:51.572Z,35.00
2022-11-29T22:20:18.860Z,30.80
2022-11-29T22:22:47.834Z,34.00
2022-11-29T22:25:15.850Z,35.57
2022-11-29T22:27:42.970Z,32.77
2022-11-29T22:30:10.514Z,32.10
2022-11-29T22:32:37.577Z,35.43
2022-11-29T22:35:04.946Z,35.10
2022-11-29T22:37:31.977Z,36.10
2022-11-29T22:39:59.088Z,33.63
2022-11-29T22:42:26.197Z,31.73
2022-11-29T22:44:53.295Z,35.23
2022-11-29T22:47:20.441Z,34.93
2022-11-29T22:49:49.302Z,35.87
2022-11-29T22:52:16.470Z,33.63
2022-11-29T22:54:43.768Z,31.87
2022-11-29T22:57:11.226Z,32.60
2022-11-29T22:59:38.369Z,32.93
2022-11-29T23:02:05.606Z,30.73
2022-11-29T23:04:32.840Z,30.17
2022-11-29T23:06:59.972Z,31.70
2022-11-29T23:09:27.007Z,31.60
2022-11-29T23:11:56.437Z,33.67
2022-11-29T23:14:24.070Z,33.50
2022-11-29T23:16:51.784Z,32.20
2022-11-29T23:19:19.223Z,33.30
2022-11-29T23:21:46.577Z,31.30
2022-11-29T23:24:15.248Z,31.83
2022-11-29T23:26:46.954Z,30.10
2022-11-29T23:29:16.820Z,29.10
2022-11-29T23:31:44.148Z,29.73
2022-11-29T23:34:12.483Z,34.13
2022-11-29T23:36:39.874Z,34.00
2022-11-29T23:39:07.643Z,28.23
2022-11-29T23:41:36.325Z,31.40
2022-11-29T23:44:05.391Z,29.40
2022-11-29T23:46:33.102Z,31.60
2022-11-29T23:49:00.236Z,31.90
2022-11-29T23:51:27.285Z,30.70
2022-11-29T23:53:54.842Z,31.20
2022-11-29T23:56:22.679Z,26.90
2022-11-29T23:58:49.989Z,31.50
